sensor_id;sensor_type;location;lat;lon;timestamp;pressure;altitude;pressure_sealevel;temperature;humidity
68230;BME280;55048;52.220;5.160;2023-03-13T00:00:18;99816.00;;;8.89;92.76
68230;BME280;55048;52.220;5.160;2023-03-13T00:02:43;99876.31;;;9.26;92.66
68230;BME280;55048;52.220;5.160;2023-03-13T00:05:12;100031.50;;;10.26;92.28
68230;BME280;55048;52.220;5.160;2023-03-13T00:07:38;100023.28;;;10.28;92.17
68230;BME280;55048;52.220;5.160;2023-03-13T00:10:04;100021.94;;;10.30;92.98
68230;BME280;55048;52.220;5.160;2023-03-13T00:12:29;99828.72;;;9.14;92.21
68230;BME280;55048;52.220;5.160;2023-03-13T00:14:55;99930.34;;;9.74;93.27
68230;BME280;55048;52.220;5.160;2023-03-13T00:17:20;99993.19;;;10.22;93.11
68230;BME280;55048;52.220;5.160;2023-03-13T00:19:46;99960.88;;;10.03;93.23
68230;BME280;55048;52.220;5.160;2023-03-13T00:22:11;99903.72;;;9.63;93.19
68230;BME280;55048;52.220;5.160;2023-03-13T00:24:37;99790.38;;;9.00;94.17
68230;BME280;55048;52.220;5.160;2023-03-13T00:27:02;99974.31;;;10.23;94.52
68230;BME280;55048;52.220;5.160;2023-03-13T00:29:32;99548.34;;;7.54;94.12
68230;BME280;55048;52.220;5.160;2023-03-13T00:31:58;99964.75;;;10.22;96.09
68230;BME280;55048;52.220;5.160;2023-03-13T00:34:24;99954.19;;;10.28;95.21
68230;BME280;55048;52.220;5.160;2023-03-13T00:36:52;99967.19;;;10.29;95.52
68230;BME280;55048;52.220;5.160;2023-03-13T00:39:17;99937.72;;;10.31;95.33
68230;BME280;55048;52.220;5.160;2023-03-13T00:41:43;99937.06;;;10.18;95.98
68230;BME280;55048;52.220;5.160;2023-03-13T00:44:09;99854.03;;;9.59;96.01
68230;BME280;55048;52.220;5.160;2023-03-13T00:46:35;99845.50;;;9.89;96.44
68230;BME280;55048;52.220;5.160;2023-03-13T00:49:01;99903.03;;;10.15;96.38
68230;BME280;55048;52.220;5.160;2023-03-13T00:51:27;99862.28;;;9.94;97.28
68230;BME280;55048;52.220;5.160;2023-03-13T00:53:54;99922.38;;;10.06;98.30
68230;BME280;55048;52.220;5.160;2023-03-13T00:56:20;99642.53;;;8.48;97.31
68230;BME280;55048;52.220;5.160;2023-03-13T00:58:47;99876.84;;;10.29;98.77
68230;BME280;55048;52.220;5.160;2023-03-13T01:01:14;99874.19;;;10.29;97.35
68230;BME280;55048;52.220;5.160;2023-03-13T01:03:42;99866.78;;;10.36;97.60
68230;BME280;55048;52.220;5.160;2023-03-13T01:06:12;99870.53;;;10.35;98.04
68230;BME280;55048;52.220;5.160;2023-03-13T01:08:37;99726.84;;;9.47;98.99
68230;BME280;55048;52.220;5.160;2023-03-13T01:11:06;99860.41;;;10.32;99.51
68230;BME280;55048;52.220;5.160;2023-03-13T01:13:32;99754.22;;;9.58;100.00
68230;BME280;55048;52.220;5.160;2023-03-13T01:18:32;99713.81;;;9.51;100.00
68230;BME280;55048;52.220;5.160;2023-03-13T01:20:58;99787.63;;;9.91;100.00
68230;BME280;55048;52.220;5.160;2023-03-13T01:23:25;99770.41;;;9.99;100.00
68230;BME280;55048;52.220;5.160;2023-03-13T01:25:50;99692.59;;;9.51;100.00
68230;BME280;55048;52.220;5.160;2023-03-13T01:28:16;99799.25;;;10.27;100.00
68230;BME280;55048;52.220;5.160;2023-03-13T01:30:41;99674.13;;;9.66;100.00
68230;BME280;55048;52.220;5.160;2023-03-13T01:33:08;99752.59;;;9.99;100.00
68230;BME280;55048;52.220;5.160;2023-03-13T01:35:33;99727.13;;;10.03;100.00
68230;BME280;55048;52.220;5.160;2023-03-13T01:37:59;99801.75;;;10.54;100.00
68230;BME280;55048;52.220;5.160;2023-03-13T01:40:24;99545.72;;;9.14;100.00
68230;BME280;55048;52.220;5.160;2023-03-13T01:42:54;99768.00;;;10.65;100.00
68230;BME280;55048;52.220;5.160;2023-03-13T01:48:04;99681.22;;;10.18;100.00
68230;BME280;55048;52.220;5.160;2023-03-13T01:50:57;99753.91;;;10.64;100.00
68230;BME280;55048;52.220;5.160;2023-03-13T01:53:27;99695.34;;;10.29;100.00
68230;BME280;55048;52.220;5.160;2023-03-13T01:55:54;99738.44;;;10.41;100.00
68230;BME280;55048;52.220;5.160;2023-03-13T01:58:22;99750.72;;;10.67;100.00
68230;BME280;55048;52.220;5.160;2023-03-13T02:00:48;99504.84;;;9.15;100.00
68230;BME280;55048;52.220;5.160;2023-03-13T02:03:16;99705.25;;;10.64;100.00
68230;BME280;55048;52.220;5.160;2023-03-13T02:05:45;99713.25;;;10.74;100.00
68230;BME280;55048;52.220;5.160;2023-03-13T02:08:35;99512.09;;;9.40;100.00
68230;BME280;55048;52.220;5.160;2023-03-13T02:11:11;99688.22;;;10.60;100.00
68230;BME280;55048;52.220;5.160;2023-03-13T02:13:39;99492.75;;;9.50;100.00
68230;BME280;55048;52.220;5.160;2023-03-13T02:16:05;99416.75;;;8.98;100.00
68230;BME280;55048;52.220;5.160;2023-03-13T02:18:31;99671.22;;;10.86;100.00
68230;BME280;55048;52.220;5.160;2023-03-13T02:21:06;99672.00;;;10.82;100.00
68230;BME280;55048;52.220;5.160;2023-03-13T02:23:41;99400.06;;;9.08;100.00
68230;BME280;55048;52.220;5.160;2023-03-13T02:26:11;99624.16;;;10.56;100.00
68230;BME280;55048;52.220;5.160;2023-03-13T02:28:37;99458.53;;;9.74;100.00
68230;BME280;55048;52.220;5.160;2023-03-13T02:31:07;99624.38;;;10.95;100.00
68230;BME280;55048;52.220;5.160;2023-03-13T02:33:37;99654.72;;;11.05;100.00
68230;BME280;55048;52.220;5.160;2023-03-13T02:36:04;99646.75;;;11.10;100.00
68230;BME280;55048;52.220;5.160;2023-03-13T02:38:32;99586.13;;;10.71;100.00
68230;BME280;55048;52.220;5.160;2023-03-13T02:40:59;99426.97;;;9.73;100.00
68230;BME280;55048;52.220;5.160;2023-03-13T02:43:30;99622.53;;;11.11;100.00
68230;BME280;55048;52.220;5.160;2023-03-13T02:46:09;99413.69;;;9.67;100.00
68230;BME280;55048;52.220;5.160;2023-03-13T02:48:48;99634.72;;;11.28;100.00
68230;BME280;55048;52.220;5.160;2023-03-13T02:51:26;99630.47;;;11.21;100.00
68230;BME280;55048;52.220;5.160;2023-03-13T02:53:58;99586.34;;;11.00;100.00
68230;BME280;55048;52.220;5.160;2023-03-13T02:56:26;99460.94;;;10.11;100.00
68230;BME280;55048;52.220;5.160;2023-03-13T02:58:53;99591.41;;;11.07;100.00
68230;BME280;55048;52.220;5.160;2023-03-13T03:01:22;99607.84;;;11.19;100.00
68230;BME280;55048;52.220;5.160;2023-03-13T03:03:47;99564.81;;;11.02;100.00
68230;BME280;55048;52.220;5.160;2023-03-13T03:06:13;99644.25;;;11.44;100.00
68230;BME280;55048;52.220;5.160;2023-03-13T03:08:39;99355.81;;;9.69;100.00
68230;BME280;55048;52.220;5.160;2023-03-13T03:11:07;99441.56;;;10.16;100.00
68230;BME280;55048;52.220;5.160;2023-03-13T03:13:32;99366.44;;;9.59;100.00
68230;BME280;55048;52.220;5.160;2023-03-13T03:15:58;99619.13;;;11.65;100.00
68230;BME280;55048;52.220;5.160;2023-03-13T03:18:24;99545.31;;;11.21;100.00
68230;BME280;55048;52.220;5.160;2023-03-13T03:20:50;99590.72;;;11.50;100.00
68230;BME280;55048;52.220;5.160;2023-03-13T03:23:16;99588.28;;;11.59;100.00
68230;BME280;55048;52.220;5.160;2023-03-13T03:25:42;99588.28;;;11.59;100.00
68230;BME280;55048;52.220;5.160;2023-03-13T03:28:08;99348.56;;;10.21;100.00
68230;BME280;55048;52.220;5.160;2023-03-13T03:30:33;99589.81;;;11.75;100.00
68230;BME280;55048;52.220;5.160;2023-03-13T03:33:01;99606.31;;;11.83;100.00
68230;BME280;55048;52.220;5.160;2023-03-13T03:35:27;99537.00;;;11.43;100.00
68230;BME280;55048;52.220;5.160;2023-03-13T03:37:52;99560.00;;;11.73;100.00
68230;BME280;55048;52.220;5.160;2023-03-13T03:40:18;99566.63;;;11.81;100.00
68230;BME280;55048;52.220;5.160;2023-03-13T03:42:45;99599.88;;;11.94;100.00
68230;BME280;55048;52.220;5.160;2023-03-13T03:45:11;99448.25;;;11.04;100.00
68230;BME280;55048;52.220;5.160;2023-03-13T03:47:36;99444.53;;;11.05;100.00
68230;BME280;55048;52.220;5.160;2023-03-13T03:50:02;99519.28;;;11.68;100.00
68230;BME280;55048;52.220;5.160;2023-03-13T03:52:32;99461.44;;;11.34;100.00
68230;BME280;55048;52.220;5.160;2023-03-13T03:54:58;99455.88;;;11.26;100.00
68230;BME280;55048;52.220;5.160;2023-03-13T03:57:23;99530.13;;;11.82;100.00
68230;BME280;55048;52.220;5.160;2023-03-13T03:59:49;99331.72;;;10.56;100.00
68230;BME280;55048;52.220;5.160;2023-03-13T04:02:14;99563.59;;;11.98;100.00
68230;BME280;55048;52.220;5.160;2023-03-13T04:04:42;99292.75;;;10.36;100.00
68230;BME280;55048;52.220;5.160;2023-03-13T04:07:10;99532.53;;;11.78;100.00
68230;BME280;55048;52.220;5.160;2023-03-13T04:09:39;99498.78;;;11.63;100.00
68230;BME280;55048;52.220;5.160;2023-03-13T04:12:06;99513.81;;;11.93;100.00
68230;BME280;55048;52.220;5.160;2023-03-13T04:14:36;99567.69;;;12.24;100.00
68230;BME280;55048;52.220;5.160;2023-03-13T04:17:04;99429.13;;;11.46;100.00
68230;BME280;55048;52.220;5.160;2023-03-13T04:19:30;99527.88;;;12.04;100.00
68230;BME280;55048;52.220;5.160;2023-03-13T04:21:56;99335.94;;;10.62;100.00
68230;BME280;55048;52.220;5.160;2023-03-13T04:24:23;99478.53;;;11.67;100.00
68230;BME280;55048;52.220;5.160;2023-03-13T04:26:48;99339.75;;;10.95;100.00
68230;BME280;55048;52.220;5.160;2023-03-13T04:29:14;99388.66;;;11.10;100.00
68230;BME280;55048;52.220;5.160;2023-03-13T04:31:55;99494.84;;;12.00;100.00
68230;BME280;55048;52.220;5.160;2023-03-13T04:34:37;99500.88;;;12.11;100.00
68230;BME280;55048;52.220;5.160;2023-03-13T04:37:18;99555.94;;;12.25;100.00
68230;BME280;55048;52.220;5.160;2023-03-13T04:39:56;99529.63;;;12.19;100.00
68230;BME280;55048;52.220;5.160;2023-03-13T04:42:49;99529.03;;;12.27;100.00
68230;BME280;55048;52.220;5.160;2023-03-13T04:45:33;99511.75;;;12.19;100.00
68230;BME280;55048;52.220;5.160;2023-03-13T04:48:11;99491.66;;;12.03;100.00
68230;BME280;55048;52.220;5.160;2023-03-13T04:50:37;99469.94;;;11.81;100.00
68230;BME280;55048;52.220;5.160;2023-03-13T04:53:26;99486.78;;;12.10;100.00
68230;BME280;55048;52.220;5.160;2023-03-13T04:56:05;99482.06;;;11.97;100.00
68230;BME280;55048;52.220;5.160;2023-03-13T04:59:00;99497.09;;;12.22;100.00
68230;BME280;55048;52.220;5.160;2023-03-13T05:01:57;99455.44;;;11.97;100.00
68230;BME280;55048;52.220;5.160;2023-03-13T05:04:52;99507.69;;;12.27;100.00
68230;BME280;55048;52.220;5.160;2023-03-13T05:07:49;99424.66;;;11.81;100.00
68230;BME280;55048;52.220;5.160;2023-03-13T05:10:33;99497.78;;;12.33;100.00
68230;BME280;55048;52.220;5.160;2023-03-13T05:13:13;99420.59;;;11.88;100.00
68230;BME280;55048;52.220;5.160;2023-03-13T05:15:52;99512.56;;;12.49;100.00
68230;BME280;55048;52.220;5.160;2023-03-13T05:18:36;99438.38;;;11.98;100.00
68230;BME280;55048;52.220;5.160;2023-03-13T05:21:27;99445.31;;;11.99;100.00
68230;BME280;55048;52.220;5.160;2023-03-13T05:24:02;99473.00;;;12.32;100.00
68230;BME280;55048;52.220;5.160;2023-03-13T05:26:40;99375.09;;;11.85;100.00
68230;BME280;55048;52.220;5.160;2023-03-13T05:29:29;99446.53;;;12.41;100.00
68230;BME280;55048;52.220;5.160;2023-03-13T05:32:13;99465.25;;;12.36;100.00
68230;BME280;55048;52.220;5.160;2023-03-13T05:34:57;99477.84;;;12.54;100.00
68230;BME280;55048;52.220;5.160;2023-03-13T05:37:23;99438.66;;;12.25;100.00
68230;BME280;55048;52.220;5.160;2023-03-13T05:39:56;99446.59;;;12.31;100.00
68230;BME280;55048;52.220;5.160;2023-03-13T05:42:31;99418.88;;;12.32;100.00
68230;BME280;55048;52.220;5.160;2023-03-13T05:45:01;99461.84;;;12.54;100.00
68230;BME280;55048;52.220;5.160;2023-03-13T05:47:47;99387.13;;;12.06;100.00
68230;BME280;55048;52.220;5.160;2023-03-13T05:50:36;99457.53;;;12.58;100.00
68230;BME280;55048;52.220;5.160;2023-03-13T05:53:34;99482.38;;;12.77;100.00
68230;BME280;55048;52.220;5.160;2023-03-13T05:56:16;99481.53;;;12.82;100.00
68230;BME280;55048;52.220;5.160;2023-03-13T05:59:11;99457.94;;;12.70;100.00
68230;BME280;55048;52.220;5.160;2023-03-13T06:01:42;99446.25;;;12.66;100.00
68230;BME280;55048;52.220;5.160;2023-03-13T06:04:14;99408.84;;;12.47;100.00
68230;BME280;55048;52.220;5.160;2023-03-13T06:06:40;99436.19;;;12.58;100.00
68230;BME280;55048;52.220;5.160;2023-03-13T06:09:06;99442.38;;;12.77;100.00
68230;BME280;55048;52.220;5.160;2023-03-13T06:11:33;99375.78;;;12.24;100.00
68230;BME280;55048;52.220;5.160;2023-03-13T06:13:58;99405.03;;;12.54;100.00
68230;BME280;55048;52.220;5.160;2023-03-13T06:16:30;99438.53;;;12.89;99.03
68230;BME280;55048;52.220;5.160;2023-03-13T06:19:10;99280.56;;;11.82;98.75
68230;BME280;55048;52.220;5.160;2023-03-13T06:21:36;99442.47;;;12.91;99.01
68230;BME280;55048;52.220;5.160;2023-03-13T06:24:01;99456.72;;;12.82;99.27
68230;BME280;55048;52.220;5.160;2023-03-13T06:26:27;99461.91;;;12.97;98.80
68230;BME280;55048;52.220;5.160;2023-03-13T06:28:52;99444.03;;;12.97;97.71
68230;BME280;55048;52.220;5.160;2023-03-13T06:31:17;99455.81;;;12.91;97.74
68230;BME280;55048;52.220;5.160;2023-03-13T06:33:43;99384.78;;;12.52;98.00
68230;BME280;55048;52.220;5.160;2023-03-13T06:36:09;99396.38;;;12.43;98.12
68230;BME280;55048;52.220;5.160;2023-03-13T06:38:34;99425.19;;;12.65;98.35
68230;BME280;55048;52.220;5.160;2023-03-13T06:41:00;99439.59;;;12.88;97.88
68230;BME280;55048;52.220;5.160;2023-03-13T06:43:26;99410.91;;;12.56;97.42
68230;BME280;55048;52.220;5.160;2023-03-13T06:45:51;99348.63;;;12.22;97.55
68230;BME280;55048;52.220;5.160;2023-03-13T06:48:17;99438.47;;;12.94;98.13
68230;BME280;55048;52.220;5.160;2023-03-13T06:50:42;99471.16;;;13.05;97.65
68230;BME280;55048;52.220;5.160;2023-03-13T06:53:16;99394.91;;;12.56;97.83
68230;BME280;55048;52.220;5.160;2023-03-13T06:55:42;99416.97;;;12.61;98.84
68230;BME280;55048;52.220;5.160;2023-03-13T06:58:08;99446.81;;;12.87;99.63
68230;BME280;55048;52.220;5.160;2023-03-13T07:00:33;99446.19;;;12.71;100.00
68230;BME280;55048;52.220;5.160;2023-03-13T07:02:59;99380.31;;;12.24;100.00
68230;BME280;55048;52.220;5.160;2023-03-13T07:05:25;99413.09;;;12.48;100.00
68230;BME280;55048;52.220;5.160;2023-03-13T07:07:50;99424.78;;;12.52;100.00
68230;BME280;55048;52.220;5.160;2023-03-13T07:10:16;99345.97;;;11.93;100.00
68230;BME280;55048;52.220;5.160;2023-03-13T07:12:41;99354.84;;;11.84;100.00
68230;BME280;55048;52.220;5.160;2023-03-13T07:15:07;99448.91;;;12.66;100.00
68230;BME280;55048;52.220;5.160;2023-03-13T07:17:34;99485.88;;;12.78;100.00
68230;BME280;55048;52.220;5.160;2023-03-13T07:19:59;99504.50;;;12.83;100.00
68230;BME280;55048;52.220;5.160;2023-03-13T07:22:25;99249.16;;;11.21;100.00
68230;BME280;55048;52.220;5.160;2023-03-13T07:24:50;99314.56;;;11.56;100.00
68230;BME280;55048;52.220;5.160;2023-03-13T07:27:16;99408.19;;;12.08;100.00
68230;BME280;55048;52.220;5.160;2023-03-13T07:29:42;99382.81;;;11.86;100.00
68230;BME280;55048;52.220;5.160;2023-03-13T07:32:07;99253.31;;;10.98;100.00
68230;BME280;55048;52.220;5.160;2023-03-13T07:34:33;99416.84;;;12.23;100.00
68230;BME280;55048;52.220;5.160;2023-03-13T07:36:58;99259.84;;;11.16;100.00
68230;BME280;55048;52.220;5.160;2023-03-13T07:39:23;99412.16;;;12.10;100.00
68230;BME280;55048;52.220;5.160;2023-03-13T07:41:49;99500.25;;;12.53;100.00
68230;BME280;55048;52.220;5.160;2023-03-13T07:44:15;99382.41;;;11.64;100.00
68230;BME280;55048;52.220;5.160;2023-03-13T07:46:41;99283.50;;;11.17;100.00
68230;BME280;55048;52.220;5.160;2023-03-13T07:49:06;99223.09;;;10.84;100.00
68230;BME280;55048;52.220;5.160;2023-03-13T07:51:32;99469.38;;;12.47;100.00
68230;BME280;55048;52.220;5.160;2023-03-13T07:53:57;99396.97;;;11.77;100.00
68230;BME280;55048;52.220;5.160;2023-03-13T07:56:23;99326.63;;;11.48;100.00
68230;BME280;55048;52.220;5.160;2023-03-13T07:58:49;99099.66;;;10.16;100.00
68230;BME280;55048;52.220;5.160;2023-03-13T08:01:23;99506.47;;;12.72;100.00
68230;BME280;55048;52.220;5.160;2023-03-13T08:03:48;99514.94;;;12.80;100.00
68230;BME280;55048;52.220;5.160;2023-03-13T08:06:20;99482.34;;;12.83;100.00
68230;BME280;55048;52.220;5.160;2023-03-13T08:08:48;99484.97;;;12.88;100.00
68230;BME280;55048;52.220;5.160;2023-03-13T08:11:16;99300.31;;;11.76;100.00
68230;BME280;55048;52.220;5.160;2023-03-13T08:13:42;99442.38;;;12.77;100.00
68230;BME280;55048;52.220;5.160;2023-03-13T08:16:09;99473.75;;;13.10;100.00
68230;BME280;55048;52.220;5.160;2023-03-13T08:18:40;99361.88;;;12.28;100.00
68230;BME280;55048;52.220;5.160;2023-03-13T08:21:07;99348.81;;;12.26;100.00
68230;BME280;55048;52.220;5.160;2023-03-13T08:23:34;99456.53;;;13.21;100.00
68230;BME280;55048;52.220;5.160;2023-03-13T08:26:05;99411.78;;;12.94;100.00
68230;BME280;55048;52.220;5.160;2023-03-13T08:28:31;99313.06;;;12.32;100.00
68230;BME280;55048;52.220;5.160;2023-03-13T08:30:56;99328.56;;;12.25;100.00
68230;BME280;55048;52.220;5.160;2023-03-13T08:33:22;99184.09;;;11.61;99.92
68230;BME280;55048;52.220;5.160;2023-03-13T08:35:47;99212.69;;;11.74;99.54
68230;BME280;55048;52.220;5.160;2023-03-13T08:38:13;99343.97;;;12.33;100.00
68230;BME280;55048;52.220;5.160;2023-03-13T08:40:38;99442.44;;;12.96;100.00
68230;BME280;55048;52.220;5.160;2023-03-13T08:43:04;99435.88;;;13.08;100.00
68230;BME280;55048;52.220;5.160;2023-03-13T08:45:29;99438.38;;;13.23;100.00
68230;BME280;55048;52.220;5.160;2023-03-13T08:47:54;99422.84;;;13.06;100.00
68230;BME280;55048;52.220;5.160;2023-03-13T08:50:20;99407.31;;;13.08;100.00
68230;BME280;55048;52.220;5.160;2023-03-13T08:52:45;99417.50;;;13.06;100.00
68230;BME280;55048;52.220;5.160;2023-03-13T08:55:11;99206.34;;;11.70;100.00
68230;BME280;55048;52.220;5.160;2023-03-13T08:57:36;99408.47;;;13.02;99.57
68230;BME280;55048;52.220;5.160;2023-03-13T09:00:02;99184.75;;;11.72;98.42
68230;BME280;55048;52.220;5.160;2023-03-13T09:02:31;99401.69;;;13.10;98.01
68230;BME280;55048;52.220;5.160;2023-03-13T09:04:56;99418.56;;;13.29;95.86
68230;BME280;55048;52.220;5.160;2023-03-13T09:07:22;99355.59;;;13.04;93.78
68230;BME280;55048;52.220;5.160;2023-03-13T09:09:47;99396.31;;;13.52;92.49
68230;BME280;55048;52.220;5.160;2023-03-13T09:12:12;99312.16;;;13.36;91.24
68230;BME280;55048;52.220;5.160;2023-03-13T09:14:38;99369.84;;;13.70;90.31
68230;BME280;55048;52.220;5.160;2023-03-13T09:17:03;99408.50;;;13.91;89.91
68230;BME280;55048;52.220;5.160;2023-03-13T09:19:29;99245.38;;;13.03;88.64
68230;BME280;55048;52.220;5.160;2023-03-13T09:21:54;99350.88;;;13.71;88.83
68230;BME280;55048;52.220;5.160;2023-03-13T09:24:20;99387.47;;;14.03;88.08
68230;BME280;55048;52.220;5.160;2023-03-13T09:26:45;99415.16;;;14.08;88.36
68230;BME280;55048;52.220;5.160;2023-03-13T09:29:10;99153.19;;;12.46;87.82
68230;BME280;55048;52.220;5.160;2023-03-13T09:31:36;99334.31;;;13.69;86.37
68230;BME280;55048;52.220;5.160;2023-03-13T09:34:03;99331.84;;;13.73;85.83
68230;BME280;55048;52.220;5.160;2023-03-13T09:36:29;99383.09;;;14.08;84.72
68230;BME280;55048;52.220;5.160;2023-03-13T09:38:57;99379.38;;;14.22;84.68
68230;BME280;55048;52.220;5.160;2023-03-13T09:41:37;99366.47;;;14.24;84.65
68230;BME280;55048;52.220;5.160;2023-03-13T09:44:19;99369.06;;;14.29;85.11
68230;BME280;55048;52.220;5.160;2023-03-13T09:47:05;99278.44;;;13.87;85.86
68230;BME280;55048;52.220;5.160;2023-03-13T09:49:37;99343.78;;;14.36;86.33
68230;BME280;55048;52.220;5.160;2023-03-13T09:52:06;99352.72;;;14.59;84.64
68230;BME280;55048;52.220;5.160;2023-03-13T09:54:41;99124.00;;;13.34;84.26
68230;BME280;55048;52.220;5.160;2023-03-13T09:59:57;99316.88;;;14.60;83.87
68230;BME280;55048;52.220;5.160;2023-03-13T10:05:01;99337.28;;;15.05;82.85
68230;BME280;55048;52.220;5.160;2023-03-13T10:07:27;99296.22;;;14.88;82.83
68230;BME280;55048;52.220;5.160;2023-03-13T10:09:52;99143.81;;;13.96;83.38
68230;BME280;55048;52.220;5.160;2023-03-13T10:12:20;99159.53;;;14.12;82.85
68230;BME280;55048;52.220;5.160;2023-03-13T10:17:39;99324.94;;;15.18;82.57
68230;BME280;55048;52.220;5.160;2023-03-13T10:20:19;99296.56;;;14.95;82.39
68230;BME280;55048;52.220;5.160;2023-03-13T10:22:50;99217.16;;;14.68;81.29
68230;BME280;55048;52.220;5.160;2023-03-13T10:25:28;99257.69;;;14.97;80.65
68230;BME280;55048;52.220;5.160;2023-03-13T10:27:55;99270.41;;;15.14;80.59
68230;BME280;55048;52.220;5.160;2023-03-13T10:30:34;99302.53;;;15.37;79.51
68230;BME280;55048;52.220;5.160;2023-03-13T10:33:18;99299.06;;;15.59;78.37
68230;BME280;55048;52.220;5.160;2023-03-13T10:35:44;99289.25;;;15.54;79.39
68230;BME280;55048;52.220;5.160;2023-03-13T10:38:18;99303.50;;;15.86;77.82
68230;BME280;55048;52.220;5.160;2023-03-13T10:40:55;99240.66;;;15.47;76.72
68230;BME280;55048;52.220;5.160;2023-03-13T10:43:24;99314.16;;;16.17;75.65
68230;BME280;55048;52.220;5.160;2023-03-13T10:45:51;99285.44;;;16.17;74.59
68230;BME280;55048;52.220;5.160;2023-03-13T10:48:22;99298.91;;;16.26;73.47
68230;BME280;55048;52.220;5.160;2023-03-13T10:50:50;99271.03;;;15.96;72.39
68230;BME280;55048;52.220;5.160;2023-03-13T10:53:21;99300.03;;;15.94;72.47
68230;BME280;55048;52.220;5.160;2023-03-13T10:55:47;99288.25;;;15.95;73.55
68230;BME280;55048;52.220;5.160;2023-03-13T10:58:46;99234.03;;;15.67;72.39
68230;BME280;55048;52.220;5.160;2023-03-13T11:01:18;99296.81;;;16.14;70.93
68230;BME280;55048;52.220;5.160;2023-03-13T11:03:46;99233.78;;;15.86;70.76
68230;BME280;55048;52.220;5.160;2023-03-13T11:08:58;99257.63;;;15.96;69.51
68230;BME280;55048;52.220;5.160;2023-03-13T11:11:24;99255.63;;;16.10;67.40
68230;BME280;55048;52.220;5.160;2023-03-13T11:14:06;99276.19;;;16.23;66.72
68230;BME280;55048;52.220;5.160;2023-03-13T11:16:36;99291.50;;;16.40;67.30
68230;BME280;55048;52.220;5.160;2023-03-13T11:35:04;99209.97;;;15.84;64.88
68230;BME280;55048;52.220;5.160;2023-03-13T11:37:32;99231.19;;;16.20;64.75
68230;BME280;55048;52.220;5.160;2023-03-13T11:42:51;99275.97;;;16.77;62.50
68230;BME280;55048;52.220;5.160;2023-03-13T11:51:26;99235.53;;;16.82;62.27
68230;BME280;55048;52.220;5.160;2023-03-13T11:56:42;99258.09;;;17.16;61.50
68230;BME280;55048;52.220;5.160;2023-03-13T11:59:37;99253.72;;;17.02;62.29
68230;BME280;55048;52.220;5.160;2023-03-13T12:04:47;99235.38;;;16.96;61.26
68230;BME280;55048;52.220;5.160;2023-03-13T12:07:29;99263.63;;;17.28;59.88
68230;BME280;55048;52.220;5.160;2023-03-13T12:10:00;99200.16;;;16.71;59.19
68230;BME280;55048;52.220;5.160;2023-03-13T12:15:05;99274.19;;;17.42;58.75
68230;BME280;55048;52.220;5.160;2023-03-13T12:17:36;99268.97;;;17.45;57.48
68230;BME280;55048;52.220;5.160;2023-03-13T12:20:07;99258.72;;;17.30;58.10
68230;BME280;55048;52.220;5.160;2023-03-13T12:22:47;99239.41;;;17.37;57.69
68230;BME280;55048;52.220;5.160;2023-03-13T12:25:25;99116.31;;;16.57;58.17
68230;BME280;55048;52.220;5.160;2023-03-13T12:28:14;99250.03;;;17.24;57.54
68230;BME280;55048;52.220;5.160;2023-03-13T12:30:44;99171.59;;;16.84;57.07
68230;BME280;55048;52.220;5.160;2023-03-13T12:35:59;99168.75;;;16.80;55.93
68230;BME280;55048;52.220;5.160;2023-03-13T12:38:37;99236.47;;;17.12;56.87
68230;BME280;55048;52.220;5.160;2023-03-13T12:41:18;99238.19;;;17.25;56.93
68230;BME280;55048;52.220;5.160;2023-03-13T12:43:50;99215.94;;;17.07;56.36
68230;BME280;55048;52.220;5.160;2023-03-13T12:48:54;99231.53;;;17.23;57.61
68230;BME280;55048;52.220;5.160;2023-03-13T12:51:35;99229.69;;;16.97;59.35
68230;BME280;55048;52.220;5.160;2023-03-13T12:57:12;99228.75;;;16.85;58.84
68230;BME280;55048;52.220;5.160;2023-03-13T13:00:00;99215.00;;;16.77;59.05
68230;BME280;55048;52.220;5.160;2023-03-13T13:02:31;99156.25;;;16.50;58.95
68230;BME280;55048;52.220;5.160;2023-03-13T13:04:59;99162.25;;;16.64;57.96
68230;BME280;55048;52.220;5.160;2023-03-13T13:07:31;99187.84;;;16.88;58.35
68230;BME280;55048;52.220;5.160;2023-03-13T13:12:39;99143.16;;;16.66;58.01
68230;BME280;55048;52.220;5.160;2023-03-13T13:15:27;99181.03;;;16.99;58.16
68230;BME280;55048;52.220;5.160;2023-03-13T13:18:13;99176.47;;;16.91;58.87
68230;BME280;55048;52.220;5.160;2023-03-13T13:20:48;99083.97;;;16.36;58.76
68230;BME280;55048;52.220;5.160;2023-03-13T13:25:45;99170.16;;;16.87;58.29
68230;BME280;55048;52.220;5.160;2023-03-13T13:28:32;99168.91;;;16.75;58.41
68230;BME280;55048;52.220;5.160;2023-03-13T13:30:59;99174.41;;;16.96;58.00
68230;BME280;55048;52.220;5.160;2023-03-13T13:38:46;99137.78;;;16.66;56.16
68230;BME280;55048;52.220;5.160;2023-03-13T13:43:45;99177.09;;;16.96;55.44
68230;BME280;55048;52.220;5.160;2023-03-13T13:46:24;99188.78;;;16.92;55.48
68230;BME280;55048;52.220;5.160;2023-03-13T13:51:40;99189.13;;;16.73;54.98
68230;BME280;55048;52.220;5.160;2023-03-13T13:57:19;99171.41;;;16.46;54.59
68230;BME280;55048;52.220;5.160;2023-03-13T14:00:04;99196.69;;;16.71;54.65
68230;BME280;55048;52.220;5.160;2023-03-13T14:02:51;99165.25;;;16.54;53.95
68230;BME280;55048;52.220;5.160;2023-03-13T14:05:29;99169.22;;;16.48;54.06
68230;BME280;55048;52.220;5.160;2023-03-13T14:08:30;99184.69;;;16.51;54.31
68230;BME280;55048;52.220;5.160;2023-03-13T14:11:15;99145.69;;;16.19;54.43
68230;BME280;55048;52.220;5.160;2023-03-13T14:14:09;99171.44;;;16.37;54.51
68230;BME280;55048;52.220;5.160;2023-03-13T14:16:36;99155.31;;;16.37;55.37
68230;BME280;55048;52.220;5.160;2023-03-13T14:19:01;99120.78;;;16.18;54.71
68230;BME280;55048;52.220;5.160;2023-03-13T14:21:27;99084.63;;;15.81;54.69
68230;BME280;55048;52.220;5.160;2023-03-13T14:23:52;99129.09;;;16.17;55.43
68230;BME280;55048;52.220;5.160;2023-03-13T14:26:23;99154.38;;;16.24;55.90
68230;BME280;55048;52.220;5.160;2023-03-13T14:28:51;99134.63;;;16.20;55.77